Terminal Aerodrome Forecast
Issued by NWS

Current Version | Previous Version | Text Only | Print | Product List | Glossary On
Versions: 1 2 3 4 5 6 7 8 9 10 11 12 13 14 15 16 17 18 19 20 21
000
FTUS42 KFFC 051730
TAFPDK
TAF
KPDK 051730Z 0518/0618 30010G20KT 6SM -RA SCT008 OVC015
      TEMPO 0518/0521 4SM RA BR OVC008
     FM052100 32010KT P6SM OVC015
     FM060200 34008KT P6SM OVC020
     FM061200 35007KT P6SM BKN025
     FM061500 03006KT P6SM SCT030=

USA.gov is the U.S. government's official web portal to all federal, state and local government web resources and services.